createdAt,value
2019-03-17T00:01:21.432Z,70.10
2019-03-17T00:03:50.120Z,70.10
2019-03-17T00:06:18.817Z,69.80
2019-03-17T00:08:47.441Z,70.00
2019-03-17T00:11:16.159Z,69.90
2019-03-17T00:16:13.241Z,70.60
2019-03-17T00:18:41.924Z,71.60
2019-03-17T00:21:10.576Z,71.20
2019-03-17T00:23:39.230Z,71.60
2019-03-17T00:26:08.127Z,71.90
2019-03-17T00:28:37.112Z,71.00
2019-03-17T00:31:05.764Z,71.90
2019-03-17T00:33:36.423Z,71.50
2019-03-17T00:38:33.053Z,72.90
2019-03-17T00:41:01.712Z,73.70
2019-03-17T00:43:30.378Z,74.00
2019-03-17T00:45:59.091Z,73.40
2019-03-17T00:48:27.762Z,73.70
2019-03-17T00:50:56.758Z,74.40
2019-03-17T00:53:25.555Z,74.50
2019-03-17T00:55:54.290Z,74.40
2019-03-17T01:00:51.517Z,74.70
2019-03-17T01:03:20.202Z,75.20
2019-03-17T01:05:48.891Z,75.70
2019-03-17T01:08:17.572Z,75.70
2019-03-17T01:10:46.293Z,75.80
2019-03-17T01:13:14.997Z,75.70
2019-03-17T01:15:43.709Z,75.90
2019-03-17T01:18:12.441Z,75.00
2019-03-17T01:23:09.597Z,75.30
2019-03-17T01:25:38.284Z,76.50
2019-03-17T01:28:07.574Z,76.00
2019-03-17T01:30:36.482Z,75.80
2019-03-17T01:33:05.286Z,75.30
2019-03-17T01:35:34.011Z,75.40
2019-03-17T01:38:02.717Z,76.10
2019-03-17T01:40:31.349Z,82.90
2019-03-17T01:45:28.259Z,75.90
2019-03-17T01:47:56.906Z,77.10
2019-03-17T01:50:26.129Z,74.80
2019-03-17T01:52:54.755Z,74.40
2019-03-17T01:55:23.443Z,74.80
2019-03-17T01:57:52.095Z,74.60
2019-03-17T02:00:20.730Z,74.10
2019-03-17T02:07:47.659Z,74.50
2019-03-17T02:10:16.322Z,75.00
2019-03-17T02:12:45.161Z,75.30
2019-03-17T02:15:13.918Z,75.40
2019-03-17T02:17:42.615Z,75.60
2019-03-17T02:20:11.325Z,75.70
2019-03-17T02:22:39.994Z,76.00
2019-03-17T02:27:37.059Z,76.20
2019-03-17T02:30:05.920Z,76.40
2019-03-17T02:32:34.637Z,76.30
2019-03-17T02:35:03.331Z,75.90
2019-03-17T02:37:32.020Z,75.80
2019-03-17T02:40:00.705Z,76.10
2019-03-17T02:42:29.394Z,75.50
2019-03-17T02:44:58.070Z,75.90
2019-03-17T02:49:55.401Z,76.70
2019-03-17T02:52:24.392Z,77.60
2019-03-17T02:54:53.036Z,77.90
2019-03-17T02:57:21.680Z,78.20
2019-03-17T02:59:50.332Z,78.10
2019-03-17T03:02:19.093Z,79.00
2019-03-17T03:04:47.774Z,78.80
2019-03-17T03:07:16.520Z,79.80
2019-03-17T03:12:13.419Z,80.00
2019-03-17T03:14:42.090Z,79.50
2019-03-17T03:17:11.145Z,79.10
2019-03-17T03:19:39.857Z,79.70
2019-03-17T03:22:08.526Z,79.90
2019-03-17T03:24:37.234Z,80.10
2019-03-17T03:27:05.900Z,79.50
2019-03-17T03:29:35.005Z,77.00
2019-03-17T03:34:31.948Z,77.00
2019-03-17T03:37:00.571Z,78.50
2019-03-17T03:39:29.222Z,78.40
2019-03-17T03:41:57.870Z,78.60
2019-03-17T03:44:26.595Z,78.10
2019-03-17T03:46:55.308Z,77.80
2019-03-17T03:49:24.056Z,77.80
2019-03-17T03:51:52.727Z,77.90
2019-03-17T03:56:49.674Z,77.80
2019-03-17T03:59:18.306Z,78.40
2019-03-17T04:01:46.936Z,78.90
2019-03-17T04:04:15.585Z,79.30
2019-03-17T04:06:44.466Z,79.20
2019-03-17T04:09:13.088Z,79.10
2019-03-17T04:11:41.763Z,77.80
2019-03-17T04:14:10.517Z,77.00
2019-03-17T04:19:07.824Z,76.80
2019-03-17T04:21:36.539Z,77.70
2019-03-17T04:24:05.193Z,78.40
2019-03-17T04:26:34.146Z,78.40
2019-03-17T04:29:02.845Z,78.20
2019-03-17T04:31:31.495Z,78.40
2019-03-17T04:34:00.125Z,78.80
2019-03-17T04:36:39.625Z,77.40
2019-03-17T04:41:27.418Z,76.60
2019-03-17T04:43:56.060Z,76.90
2019-03-17T04:46:24.683Z,76.70
2019-03-17T04:48:53.412Z,77.00
2019-03-17T04:51:22.266Z,77.60
2019-03-17T04:53:50.937Z,77.60
2019-03-17T04:56:19.617Z,76.10
2019-03-17T04:58:48.330Z,76.10
2019-03-17T05:06:13.599Z,77.50
2019-03-17T05:08:42.299Z,76.50
2019-03-17T05:11:10.950Z,76.40
2019-03-17T05:13:39.704Z,76.40
2019-03-17T05:16:08.351Z,76.70
2019-03-17T05:18:37.090Z,76.70
2019-03-17T05:21:06.161Z,76.20
2019-03-17T05:26:03.305Z,75.50
2019-03-17T05:28:32.140Z,76.50
2019-03-17T05:31:00.865Z,77.20
2019-03-17T05:33:29.600Z,77.60
2019-03-17T05:35:58.284Z,78.20
2019-03-17T05:38:26.991Z,77.60
2019-03-17T05:40:55.609Z,77.70
2019-03-17T05:43:24.336Z,76.90
2019-03-17T05:48:21.324Z,77.40
2019-03-17T05:50:49.970Z,79.40
2019-03-17T05:53:18.714Z,79.90
2019-03-17T05:55:47.376Z,79.60
2019-03-17T05:58:16.150Z,79.30
2019-03-17T06:00:44.852Z,79.40
2019-03-17T06:03:13.469Z,79.40
2019-03-17T06:05:42.234Z,78.20
2019-03-17T06:13:07.591Z,77.70
2019-03-17T06:15:36.305Z,78.60
2019-03-17T06:18:05.313Z,78.40
2019-03-17T06:20:33.953Z,78.40
2019-03-17T06:23:02.712Z,78.40
2019-03-17T06:25:31.669Z,78.00
2019-03-17T06:28:00.389Z,76.90
2019-03-17T06:30:29.049Z,77.30
2019-03-17T06:35:26.145Z,77.20
2019-03-17T06:37:54.797Z,77.90
2019-03-17T06:40:24.000Z,77.00
2019-03-17T06:42:52.793Z,77.00
2019-03-17T06:45:21.508Z,76.50
2019-03-17T06:47:50.160Z,76.40
2019-03-17T06:50:18.826Z,75.90
2019-03-17T06:52:47.555Z,76.40
2019-03-17T06:57:44.500Z,82.00
2019-03-17T07:00:13.461Z,81.80
2019-03-17T07:02:42.195Z,76.40
2019-03-17T07:05:10.896Z,75.60
2019-03-17T07:07:44.418Z,75.10
2019-03-17T07:10:10.029Z,75.80
2019-03-17T07:12:38.952Z,75.80
2019-03-17T07:15:07.714Z,74.80
2019-03-17T07:20:05.512Z,74.80
2019-03-17T07:22:34.156Z,74.60
2019-03-17T07:25:02.882Z,74.40
2019-03-17T07:27:31.718Z,72.00
2019-03-17T07:30:00.512Z,69.00
2019-03-17T07:32:29.229Z,68.30
2019-03-17T07:34:57.910Z,64.40
2019-03-17T07:39:54.854Z,63.10
2019-03-17T07:42:23.625Z,63.10
2019-03-17T07:44:52.293Z,59.60
2019-03-17T07:47:21.002Z,60.00
2019-03-17T07:49:49.646Z,59.30
2019-03-17T07:52:18.292Z,57.90
2019-03-17T07:54:46.936Z,57.00
2019-03-17T07:57:15.636Z,51.30
2019-03-17T08:02:12.714Z,51.40
2019-03-17T08:04:42.929Z,49.30
2019-03-17T08:07:11.816Z,49.00
2019-03-17T08:09:40.764Z,49.90
2019-03-17T08:12:09.405Z,49.60
2019-03-17T08:14:38.089Z,48.80
2019-03-17T08:17:06.753Z,47.70
2019-03-17T08:19:35.448Z,46.70
2019-03-17T08:27:01.351Z,43.50
2019-03-17T08:29:30.005Z,43.10
2019-03-17T08:31:58.986Z,41.70
2019-03-17T08:34:27.829Z,42.50
2019-03-17T08:36:56.541Z,41.30
2019-03-17T08:39:25.237Z,40.30
2019-03-17T08:41:53.882Z,39.30
2019-03-17T08:44:22.522Z,37.50
2019-03-17T08:49:19.458Z,35.60
2019-03-17T08:51:48.231Z,35.80
2019-03-17T08:54:16.897Z,35.10
2019-03-17T08:56:45.554Z,35.10
2019-03-17T08:59:14.186Z,35.30
2019-03-17T09:01:42.898Z,36.60
2019-03-17T09:04:11.700Z,35.70
2019-03-17T09:09:09.775Z,35.70
2019-03-17T09:11:38.466Z,36.90
2019-03-17T09:14:07.237Z,35.00
2019-03-17T09:16:35.878Z,34.70
2019-03-17T09:19:04.773Z,31.90
2019-03-17T09:21:33.418Z,30.30
2019-03-17T09:24:02.150Z,31.80
2019-03-17T09:26:30.836Z,29.00
2019-03-17T09:31:27.745Z,29.30
2019-03-17T09:33:56.484Z,30.50
2019-03-17T09:36:25.203Z,32.10
2019-03-17T09:38:53.855Z,29.10
2019-03-17T09:41:22.603Z,29.20
2019-03-17T09:43:51.255Z,27.50
2019-03-17T09:46:19.940Z,27.80
2019-03-17T09:48:48.756Z,27.00
2019-03-17T09:53:45.724Z,29.80
2019-03-17T09:56:14.379Z,26.30
2019-03-17T09:58:45.550Z,27.00
2019-03-17T10:01:13.687Z,25.40
2019-03-17T10:03:42.736Z,25.30
2019-03-17T10:06:13.077Z,24.90
2019-03-17T10:08:41.995Z,24.90
2019-03-17T10:11:11.177Z,25.00
2019-03-17T10:16:08.634Z,24.80
2019-03-17T10:18:37.375Z,24.50
2019-03-17T10:21:06.165Z,24.30
2019-03-17T10:23:34.829Z,25.00
2019-03-17T10:26:03.846Z,23.10
2019-03-17T10:28:34.943Z,22.70
2019-03-17T10:31:03.330Z,22.90
2019-03-17T10:33:32.321Z,21.80
2019-03-17T10:38:29.960Z,22.10
2019-03-17T10:40:59.038Z,22.50
2019-03-17T10:43:27.811Z,22.70
2019-03-17T10:45:56.509Z,23.10
2019-03-17T10:48:25.799Z,22.60
2019-03-17T10:50:54.699Z,22.70
2019-03-17T10:53:23.598Z,21.80
2019-03-17T10:58:21.376Z,21.30
2019-03-17T11:00:50.707Z,22.70
2019-03-17T11:03:20.050Z,22.90
2019-03-17T11:05:49.901Z,22.50
2019-03-17T11:08:18.807Z,23.00
2019-03-17T11:10:47.811Z,22.10
2019-03-17T11:13:17.184Z,22.60
2019-03-17T11:15:46.207Z,21.90
2019-03-17T11:20:43.970Z,25.30
2019-03-17T11:23:12.937Z,22.20
2019-03-17T11:25:42.008Z,21.40
2019-03-17T11:28:11.061Z,21.40
2019-03-17T11:30:40.167Z,21.60
2019-03-17T11:33:09.283Z,21.70
2019-03-17T11:35:38.256Z,21.30
2019-03-17T11:38:07.134Z,21.70
2019-03-17T11:43:04.821Z,21.80
2019-03-17T11:45:34.126Z,21.30
2019-03-17T11:48:03.244Z,22.00
2019-03-17T11:50:32.226Z,22.90
2019-03-17T11:53:01.217Z,21.70
2019-03-17T11:55:31.829Z,21.90
2019-03-17T11:58:00.729Z,23.60
2019-03-17T12:00:29.752Z,22.10
2019-03-17T12:05:26.709Z,22.10
2019-03-17T12:07:55.514Z,21.70
2019-03-17T12:10:24.179Z,21.60
2019-03-17T12:12:52.899Z,22.50
2019-03-17T12:15:21.589Z,22.20
2019-03-17T12:17:50.219Z,21.60
2019-03-17T12:20:18.941Z,43.20
2019-03-17T12:25:15.938Z,21.60
2019-03-17T12:27:44.585Z,21.70
2019-03-17T12:30:20.506Z,23.10
2019-03-17T12:32:49.515Z,23.70
2019-03-17T12:35:18.379Z,24.40
2019-03-17T12:37:47.033Z,24.50
2019-03-17T12:40:15.693Z,23.70
2019-03-17T12:42:44.383Z,23.70
2019-03-17T12:47:41.886Z,23.40
2019-03-17T12:50:11.416Z,23.40
2019-03-17T12:52:40.146Z,23.30
2019-03-17T12:55:08.876Z,23.10
2019-03-17T12:57:37.574Z,24.30
2019-03-17T13:00:07.602Z,23.90
2019-03-17T13:02:36.314Z,23.10
2019-03-17T13:05:05.073Z,22.80
2019-03-17T13:10:14.484Z,23.10
2019-03-17T13:12:32.502Z,24.50
2019-03-17T13:15:01.235Z,23.10
2019-03-17T13:17:30.000Z,23.20
2019-03-17T13:19:58.656Z,22.90
2019-03-17T13:22:27.313Z,23.30
2019-03-17T13:24:55.951Z,23.30
2019-03-17T13:27:24.626Z,23.30
2019-03-17T13:32:21.701Z,22.50
2019-03-17T13:34:50.434Z,23.70
2019-03-17T13:37:19.131Z,23.60
2019-03-17T13:39:47.825Z,23.60
2019-03-17T13:42:16.810Z,24.60
2019-03-17T13:44:45.445Z,24.10
2019-03-17T13:47:14.372Z,23.70
2019-03-17T13:49:43.069Z,22.80
2019-03-17T13:54:40.425Z,22.80
2019-03-17T13:57:09.143Z,23.40
2019-03-17T13:59:38.041Z,23.10
2019-03-17T14:02:06.697Z,23.40
2019-03-17T14:04:35.392Z,24.10
2019-03-17T14:07:04.073Z,24.00
2019-03-17T14:09:35.414Z,24.30
2019-03-17T14:12:03.192Z,23.20
2019-03-17T14:17:00.231Z,24.10
2019-03-17T14:19:28.950Z,24.70
2019-03-17T14:21:57.585Z,24.00
2019-03-17T14:24:26.482Z,23.80
2019-03-17T14:26:55.459Z,24.20
2019-03-17T14:29:24.080Z,24.60
2019-03-17T14:31:52.733Z,24.40
2019-03-17T14:34:21.371Z,24.50
2019-03-17T14:39:18.330Z,24.00
2019-03-17T14:41:46.981Z,24.50
2019-03-17T14:44:16.542Z,24.70
2019-03-17T14:46:45.210Z,24.70
2019-03-17T14:49:13.852Z,25.60
2019-03-17T14:51:42.573Z,26.00
2019-03-17T14:54:11.254Z,25.70
2019-03-17T15:01:36.487Z,26.40
2019-03-17T15:04:05.144Z,27.40
2019-03-17T15:06:34.130Z,27.40
2019-03-17T15:09:03.872Z,27.60
2019-03-17T15:11:32.510Z,28.70
2019-03-17T15:14:01.141Z,28.40
2019-03-17T15:16:29.788Z,28.30
2019-03-17T15:21:26.899Z,28.60
2019-03-17T15:23:55.587Z,28.70
2019-03-17T15:26:24.264Z,29.20
2019-03-17T15:28:52.967Z,29.50
2019-03-17T15:31:22.021Z,29.70
2019-03-17T15:33:50.664Z,29.90
2019-03-17T15:36:19.350Z,30.30
2019-03-17T15:38:48.293Z,29.90
2019-03-17T15:43:47.460Z,30.10
2019-03-17T15:46:16.084Z,31.20
2019-03-17T15:48:44.817Z,31.70
2019-03-17T15:51:20.317Z,31.80
2019-03-17T15:53:43.928Z,31.90
2019-03-17T15:56:12.580Z,32.50
2019-03-17T15:58:41.291Z,32.60
2019-03-17T16:01:10.045Z,37.50
2019-03-17T16:06:07.309Z,33.20
2019-03-17T16:08:36.015Z,33.50
2019-03-17T16:11:04.768Z,33.80
2019-03-17T16:13:33.976Z,34.10
2019-03-17T16:16:02.771Z,34.50
2019-03-17T16:18:32.502Z,35.00
2019-03-17T16:21:01.123Z,34.80
2019-03-17T16:23:29.755Z,35.00
2019-03-17T16:28:26.937Z,35.50
2019-03-17T16:30:55.665Z,36.40
2019-03-17T16:33:24.326Z,36.90
2019-03-17T16:35:52.967Z,37.20
2019-03-17T16:38:22.006Z,37.20
2019-03-17T16:40:50.645Z,37.30
2019-03-17T16:43:19.935Z,36.80
2019-03-17T16:48:16.891Z,37.30
2019-03-17T16:50:45.542Z,38.20
2019-03-17T16:53:14.228Z,38.20
2019-03-17T16:55:42.864Z,38.20
2019-03-17T16:58:11.505Z,38.70
2019-03-17T17:00:40.137Z,38.90
2019-03-17T17:03:08.870Z,39.20
2019-03-17T17:05:37.823Z,38.40
2019-03-17T17:08:06.453Z,38.60
2019-03-17T17:10:38.204Z,39.20
2019-03-17T17:13:05.536Z,40.50
2019-03-17T17:15:34.219Z,40.60
2019-03-17T17:18:02.857Z,40.90
2019-03-17T17:20:31.521Z,41.20
2019-03-17T17:23:00.178Z,41.70
2019-03-17T17:25:28.862Z,42.40
2019-03-17T17:27:57.950Z,43.20
2019-03-17T17:32:54.944Z,44.00
2019-03-17T17:35:23.605Z,48.60
2019-03-17T17:37:52.289Z,54.40
2019-03-17T17:40:20.987Z,55.00
2019-03-17T17:42:49.950Z,58.70
2019-03-17T17:45:18.665Z,63.20
2019-03-17T17:47:47.664Z,68.80
2019-03-17T17:50:16.835Z,69.40
2019-03-17T17:55:14.748Z,73.40
2019-03-17T17:57:43.390Z,75.40
2019-03-17T18:00:15.734Z,77.50
2019-03-17T18:02:44.861Z,76.10
2019-03-17T18:05:13.569Z,76.60
2019-03-17T18:07:42.251Z,78.80
2019-03-17T18:10:10.961Z,79.70
2019-03-17T18:12:40.000Z,79.50
2019-03-17T18:17:37.899Z,84.00
2019-03-17T18:20:07.240Z,85.70
2019-03-17T18:22:35.917Z,85.40
2019-03-17T18:25:05.231Z,85.00
2019-03-17T18:27:33.940Z,86.10
2019-03-17T18:30:02.877Z,87.10
2019-03-17T18:32:31.584Z,87.80
2019-03-17T18:35:00.669Z,88.50
2019-03-17T18:39:57.865Z,89.20
2019-03-17T18:42:32.997Z,89.30
2019-03-17T18:44:57.402Z,86.60
2019-03-17T18:47:26.405Z,87.40
2019-03-17T18:49:55.590Z,89.60
2019-03-17T18:52:24.226Z,90.10
2019-03-17T18:54:52.880Z,90.90
2019-03-17T18:57:21.663Z,93.60
2019-03-17T19:02:18.685Z,90.90
2019-03-17T19:04:47.353Z,91.90
2019-03-17T19:07:16.101Z,91.50
2019-03-17T19:09:44.749Z,92.10
2019-03-17T19:12:13.409Z,91.10
2019-03-17T19:14:42.052Z,91.80
2019-03-17T19:17:10.739Z,90.70
2019-03-17T19:24:37.098Z,92.40
2019-03-17T19:27:05.823Z,93.00
2019-03-17T19:29:34.490Z,94.30
2019-03-17T19:32:03.144Z,94.10
2019-03-17T19:34:31.868Z,94.10
2019-03-17T19:37:00.570Z,94.00
2019-03-17T19:39:29.236Z,93.70
2019-03-17T19:44:26.219Z,93.70
2019-03-17T19:46:54.880Z,94.40
2019-03-17T19:49:23.594Z,94.50
2019-03-17T19:51:52.234Z,93.70
2019-03-17T19:54:20.882Z,94.30
2019-03-17T19:56:49.549Z,94.80
2019-03-17T19:59:18.206Z,94.50
2019-03-17T20:01:46.840Z,94.00
2019-03-17T20:06:44.075Z,93.80
2019-03-17T20:09:12.706Z,93.90
2019-03-17T20:11:41.361Z,93.50
2019-03-17T20:14:10.012Z,94.10
2019-03-17T20:16:38.732Z,95.00
2019-03-17T20:19:07.397Z,94.60
2019-03-17T20:21:36.085Z,94.40
2019-03-17T20:24:04.762Z,94.90
2019-03-17T20:29:01.762Z,95.10
2019-03-17T20:31:30.405Z,95.50
2019-03-17T20:33:59.087Z,95.30
2019-03-17T20:36:27.738Z,95.20
2019-03-17T20:38:56.476Z,93.90
2019-03-17T20:41:25.145Z,93.70
2019-03-17T20:43:53.785Z,93.30
2019-03-17T20:51:19.091Z,93.60
2019-03-17T20:53:47.763Z,94.70
2019-03-17T20:56:16.470Z,95.30
2019-03-17T20:58:45.247Z,94.70
2019-03-17T21:01:13.937Z,95.60
2019-03-17T21:03:42.583Z,94.60
2019-03-17T21:06:11.644Z,94.20
2019-03-17T21:11:08.565Z,93.80
2019-03-17T21:13:46.172Z,93.70
2019-03-17T21:16:07.595Z,93.90
2019-03-17T21:18:36.232Z,94.30
2019-03-17T21:21:04.972Z,94.60
2019-03-17T21:23:33.646Z,94.50
2019-03-17T21:26:02.602Z,93.90
2019-03-17T21:28:31.322Z,94.20
2019-03-17T21:33:28.893Z,94.00
2019-03-17T21:35:57.584Z,94.20
2019-03-17T21:38:26.485Z,94.40
2019-03-17T21:41:06.625Z,94.20
2019-03-17T21:43:25.586Z,93.60
2019-03-17T21:45:54.324Z,93.70
2019-03-17T21:48:23.068Z,94.10
2019-03-17T21:50:51.794Z,93.40
2019-03-17T21:55:48.835Z,93.40
2019-03-17T21:58:17.771Z,93.20
2019-03-17T22:00:46.495Z,92.40
2019-03-17T22:03:18.991Z,92.50
2019-03-17T22:05:47.627Z,92.20
2019-03-17T22:08:16.322Z,92.40
2019-03-17T22:10:45.034Z,91.90
2019-03-17T22:13:13.690Z,90.80
2019-03-17T22:18:10.800Z,91.40
2019-03-17T22:20:39.461Z,91.40
2019-03-17T22:23:08.162Z,91.40
2019-03-17T22:25:36.877Z,90.70
2019-03-17T22:28:08.656Z,90.40
2019-03-17T22:30:36.054Z,90.70
2019-03-17T22:33:05.099Z,90.40
2019-03-17T22:35:33.790Z,91.40
2019-03-17T22:40:30.810Z,90.60
2019-03-17T22:42:59.702Z,90.00
2019-03-17T22:45:28.356Z,90.30
2019-03-17T22:47:57.053Z,87.20
2019-03-17T22:50:26.025Z,88.10
2019-03-17T22:52:55.243Z,89.40
2019-03-17T22:55:23.889Z,90.10
2019-03-17T22:57:52.789Z,90.00
2019-03-17T23:00:24.908Z,89.70
2019-03-17T23:02:53.704Z,90.10
2019-03-17T23:05:22.576Z,90.00
2019-03-17T23:07:51.421Z,87.30
2019-03-17T23:10:20.409Z,88.40
2019-03-17T23:12:49.108Z,88.60
2019-03-17T23:15:17.809Z,89.30
2019-03-17T23:17:46.500Z,89.90
2019-03-17T23:22:43.694Z,91.30
2019-03-17T23:25:12.464Z,92.00
2019-03-17T23:27:41.119Z,92.10
2019-03-17T23:30:10.433Z,92.20
2019-03-17T23:32:39.193Z,93.10
2019-03-17T23:35:08.109Z,94.20
2019-03-17T23:37:36.832Z,94.60
2019-03-17T23:40:06.176Z,95.70
2019-03-17T23:45:03.649Z,96.10
2019-03-17T23:47:32.634Z,95.50
2019-03-17T23:50:01.661Z,95.10
2019-03-17T23:52:30.527Z,94.30
2019-03-17T23:54:59.291Z,94.60
2019-03-17T23:57:28.945Z,94.60
2019-03-17T23:59:57.854Z,93.90
